sensor_id;sensor_type;location;lat;lon;timestamp;temperature;humidity
7784;DHT22;19359;51.402;6.778;2022-07-22T00:02:05;16.80;99.90
7784;DHT22;19359;51.402;6.778;2022-07-22T00:04:32;16.80;99.90
7784;DHT22;19359;51.402;6.778;2022-07-22T00:06:58;16.80;99.90
7784;DHT22;19359;51.402;6.778;2022-07-22T00:09:25;16.70;99.90
7784;DHT22;19359;51.402;6.778;2022-07-22T00:11:54;16.80;99.90
7784;DHT22;19359;51.402;6.778;2022-07-22T00:14:21;16.80;99.90
7784;DHT22;19359;51.402;6.778;2022-07-22T00:16:48;16.80;99.90
7784;DHT22;19359;51.402;6.778;2022-07-22T00:19:14;16.90;99.90
7784;DHT22;19359;51.402;6.778;2022-07-22T00:21:41;16.90;99.90
7784;DHT22;19359;51.402;6.778;2022-07-22T00:24:08;16.80;99.90
7784;DHT22;19359;51.402;6.778;2022-07-22T00:26:35;16.80;99.90
7784;DHT22;19359;51.402;6.778;2022-07-22T00:29:03;16.80;99.90
7784;DHT22;19359;51.402;6.778;2022-07-22T00:31:30;16.70;99.90
7784;DHT22;19359;51.402;6.778;2022-07-22T00:33:58;16.70;99.90
7784;DHT22;19359;51.402;6.778;2022-07-22T00:36:26;16.80;99.90
7784;DHT22;19359;51.402;6.778;2022-07-22T00:38:53;16.80;99.90
7784;DHT22;19359;51.402;6.778;2022-07-22T00:41:20;16.80;99.90
7784;DHT22;19359;51.402;6.778;2022-07-22T00:43:55;16.80;99.90
7784;DHT22;19359;51.402;6.778;2022-07-22T00:46:25;16.80;99.90
7784;DHT22;19359;51.402;6.778;2022-07-22T00:48:53;16.70;99.90
7784;DHT22;19359;51.402;6.778;2022-07-22T00:51:21;16.80;99.90
7784;DHT22;19359;51.402;6.778;2022-07-22T00:53:48;16.70;99.90
7784;DHT22;19359;51.402;6.778;2022-07-22T00:56:15;16.70;99.90
7784;DHT22;19359;51.402;6.778;2022-07-22T00:58:43;16.80;99.90
7784;DHT22;19359;51.402;6.778;2022-07-22T01:01:10;16.80;99.90
7784;DHT22;19359;51.402;6.778;2022-07-22T01:03:39;16.80;99.90
7784;DHT22;19359;51.402;6.778;2022-07-22T01:06:07;16.80;99.90
7784;DHT22;19359;51.402;6.778;2022-07-22T01:08:34;16.80;99.90
7784;DHT22;19359;51.402;6.778;2022-07-22T01:11:08;16.70;99.90
7784;DHT22;19359;51.402;6.778;2022-07-22T01:13:36;16.70;99.90
7784;DHT22;19359;51.402;6.778;2022-07-22T01:16:03;16.70;99.90
7784;DHT22;19359;51.402;6.778;2022-07-22T01:18:30;16.60;99.90
7784;DHT22;19359;51.402;6.778;2022-07-22T01:20:59;16.60;99.90
7784;DHT22;19359;51.402;6.778;2022-07-22T01:23:26;16.60;99.90
7784;DHT22;19359;51.402;6.778;2022-07-22T01:25:53;16.50;99.90
7784;DHT22;19359;51.402;6.778;2022-07-22T01:28:21;16.50;99.90
7784;DHT22;19359;51.402;6.778;2022-07-22T01:30:48;16.50;99.90
7784;DHT22;19359;51.402;6.778;2022-07-22T01:33:16;16.50;99.90
7784;DHT22;19359;51.402;6.778;2022-07-22T01:35:43;16.50;99.90
7784;DHT22;19359;51.402;6.778;2022-07-22T01:38:11;16.50;99.90
7784;DHT22;19359;51.402;6.778;2022-07-22T01:40:38;16.50;99.90
7784;DHT22;19359;51.402;6.778;2022-07-22T01:43:06;16.40;99.90
7784;DHT22;19359;51.402;6.778;2022-07-22T01:45:33;16.50;99.90
7784;DHT22;19359;51.402;6.778;2022-07-22T01:48:00;16.50;99.90
7784;DHT22;19359;51.402;6.778;2022-07-22T01:50:27;16.60;99.90
7784;DHT22;19359;51.402;6.778;2022-07-22T01:52:54;16.70;99.90
7784;DHT22;19359;51.402;6.778;2022-07-22T01:55:22;16.60;99.90
7784;DHT22;19359;51.402;6.778;2022-07-22T01:57:49;16.70;99.90
7784;DHT22;19359;51.402;6.778;2022-07-22T02:00:16;16.70;99.90
7784;DHT22;19359;51.402;6.778;2022-07-22T02:02:43;16.60;99.90
7784;DHT22;19359;51.402;6.778;2022-07-22T02:05:10;16.70;99.90
7784;DHT22;19359;51.402;6.778;2022-07-22T02:07:37;16.60;99.90
7784;DHT22;19359;51.402;6.778;2022-07-22T02:10:04;16.70;99.90
7784;DHT22;19359;51.402;6.778;2022-07-22T02:12:33;16.70;99.90
7784;DHT22;19359;51.402;6.778;2022-07-22T02:15:00;16.70;99.90
7784;DHT22;19359;51.402;6.778;2022-07-22T02:17:27;16.70;99.90
7784;DHT22;19359;51.402;6.778;2022-07-22T02:19:54;16.70;99.90
7784;DHT22;19359;51.402;6.778;2022-07-22T02:22:21;16.60;99.90
7784;DHT22;19359;51.402;6.778;2022-07-22T02:24:47;16.50;99.90
7784;DHT22;19359;51.402;6.778;2022-07-22T02:27:14;16.40;99.90
7784;DHT22;19359;51.402;6.778;2022-07-22T02:29:42;16.40;99.90
7784;DHT22;19359;51.402;6.778;2022-07-22T02:32:09;16.50;99.90
7784;DHT22;19359;51.402;6.778;2022-07-22T02:34:36;16.40;99.90
7784;DHT22;19359;51.402;6.778;2022-07-22T02:37:03;16.50;99.90
7784;DHT22;19359;51.402;6.778;2022-07-22T02:39:30;16.60;99.90
7784;DHT22;19359;51.402;6.778;2022-07-22T02:41:57;16.60;99.90
7784;DHT22;19359;51.402;6.778;2022-07-22T02:44:24;16.70;99.90
7784;DHT22;19359;51.402;6.778;2022-07-22T02:46:52;16.60;99.90
7784;DHT22;19359;51.402;6.778;2022-07-22T02:49:19;16.70;99.90
7784;DHT22;19359;51.402;6.778;2022-07-22T02:51:46;16.70;99.90
7784;DHT22;19359;51.402;6.778;2022-07-22T02:54:12;16.80;99.90
7784;DHT22;19359;51.402;6.778;2022-07-22T02:56:39;16.80;99.90
7784;DHT22;19359;51.402;6.778;2022-07-22T02:59:06;16.90;99.90
7784;DHT22;19359;51.402;6.778;2022-07-22T03:01:33;16.70;99.90
7784;DHT22;19359;51.402;6.778;2022-07-22T03:04:01;16.80;99.90
7784;DHT22;19359;51.402;6.778;2022-07-22T03:06:28;16.70;99.90
7784;DHT22;19359;51.402;6.778;2022-07-22T03:08:55;16.70;99.90
7784;DHT22;19359;51.402;6.778;2022-07-22T03:11:21;16.50;99.90
7784;DHT22;19359;51.402;6.778;2022-07-22T03:13:48;16.40;99.90
7784;DHT22;19359;51.402;6.778;2022-07-22T03:16:15;16.40;99.90
7784;DHT22;19359;51.402;6.778;2022-07-22T03:18:42;16.60;99.90
7784;DHT22;19359;51.402;6.778;2022-07-22T03:21:11;16.60;99.90
7784;DHT22;19359;51.402;6.778;2022-07-22T03:23:38;16.60;99.90
7784;DHT22;19359;51.402;6.778;2022-07-22T03:26:05;16.70;99.90
7784;DHT22;19359;51.402;6.778;2022-07-22T03:28:32;16.70;99.90
7784;DHT22;19359;51.402;6.778;2022-07-22T03:30:59;16.80;99.90
7784;DHT22;19359;51.402;6.778;2022-07-22T03:33:26;16.80;99.90
7784;DHT22;19359;51.402;6.778;2022-07-22T03:35:53;16.80;99.90
7784;DHT22;19359;51.402;6.778;2022-07-22T03:38:21;16.80;99.90
7784;DHT22;19359;51.402;6.778;2022-07-22T03:40:48;16.90;99.90
7784;DHT22;19359;51.402;6.778;2022-07-22T03:43:15;17.00;99.90
7784;DHT22;19359;51.402;6.778;2022-07-22T03:45:41;17.00;99.90
7784;DHT22;19359;51.402;6.778;2022-07-22T03:48:08;17.00;99.90
7784;DHT22;19359;51.402;6.778;2022-07-22T03:50:35;17.00;99.90
7784;DHT22;19359;51.402;6.778;2022-07-22T03:53:02;17.10;99.90
7784;DHT22;19359;51.402;6.778;2022-07-22T03:55:30;17.10;99.90
7784;DHT22;19359;51.402;6.778;2022-07-22T03:57:57;17.10;99.90
7784;DHT22;19359;51.402;6.778;2022-07-22T04:00:24;17.00;99.90
7784;DHT22;19359;51.402;6.778;2022-07-22T04:02:51;17.00;99.90
7784;DHT22;19359;51.402;6.778;2022-07-22T04:05:18;17.10;99.90
7784;DHT22;19359;51.402;6.778;2022-07-22T04:07:45;17.00;99.90
7784;DHT22;19359;51.402;6.778;2022-07-22T04:10:11;17.00;1.00
7784;DHT22;19359;51.402;6.778;2022-07-22T04:12:40;17.00;99.90
7784;DHT22;19359;51.402;6.778;2022-07-22T04:15:08;17.00;99.90
7784;DHT22;19359;51.402;6.778;2022-07-22T04:17:35;17.00;99.90
7784;DHT22;19359;51.402;6.778;2022-07-22T04:20:02;17.00;99.90
7784;DHT22;19359;51.402;6.778;2022-07-22T04:22:29;17.10;99.90
7784;DHT22;19359;51.402;6.778;2022-07-22T04:24:56;17.10;99.90
7784;DHT22;19359;51.402;6.778;2022-07-22T04:27:23;17.00;99.90
7784;DHT22;19359;51.402;6.778;2022-07-22T04:29:51;17.00;99.90
7784;DHT22;19359;51.402;6.778;2022-07-22T04:32:18;17.00;99.90
7784;DHT22;19359;51.402;6.778;2022-07-22T04:34:45;17.00;99.90
7784;DHT22;19359;51.402;6.778;2022-07-22T04:37:12;17.00;99.90
7784;DHT22;19359;51.402;6.778;2022-07-22T04:39:38;17.10;99.90
7784;DHT22;19359;51.402;6.778;2022-07-22T04:42:06;17.10;99.90
7784;DHT22;19359;51.402;6.778;2022-07-22T04:44:32;17.10;99.90
7784;DHT22;19359;51.402;6.778;2022-07-22T04:47:00;17.10;99.90
7784;DHT22;19359;51.402;6.778;2022-07-22T04:49:27;17.10;99.90
7784;DHT22;19359;51.402;6.778;2022-07-22T04:51:54;17.10;99.90
7784;DHT22;19359;51.402;6.778;2022-07-22T04:54:21;16.90;99.90
7784;DHT22;19359;51.402;6.778;2022-07-22T04:56:48;16.90;99.90
7784;DHT22;19359;51.402;6.778;2022-07-22T04:59:15;16.90;99.90
7784;DHT22;19359;51.402;6.778;2022-07-22T05:04:10;17.00;99.90
7784;DHT22;19359;51.402;6.778;2022-07-22T05:06:37;17.00;99.90
7784;DHT22;19359;51.402;6.778;2022-07-22T05:09:04;17.00;99.90
7784;DHT22;19359;51.402;6.778;2022-07-22T05:11:31;17.10;99.90
7784;DHT22;19359;51.402;6.778;2022-07-22T05:13:58;17.10;99.90
7784;DHT22;19359;51.402;6.778;2022-07-22T05:16:25;17.10;99.90
7784;DHT22;19359;51.402;6.778;2022-07-22T05:18:51;17.20;99.90
7784;DHT22;19359;51.402;6.778;2022-07-22T05:21:19;17.20;99.90
7784;DHT22;19359;51.402;6.778;2022-07-22T05:23:46;17.20;99.90
7784;DHT22;19359;51.402;6.778;2022-07-22T05:26:13;17.10;99.90
7784;DHT22;19359;51.402;6.778;2022-07-22T05:28:40;17.30;99.90
7784;DHT22;19359;51.402;6.778;2022-07-22T05:31:06;17.30;99.90
7784;DHT22;19359;51.402;6.778;2022-07-22T05:33:33;17.30;99.90
7784;DHT22;19359;51.402;6.778;2022-07-22T05:36:00;17.30;99.90
7784;DHT22;19359;51.402;6.778;2022-07-22T05:38:31;17.30;99.90
7784;DHT22;19359;51.402;6.778;2022-07-22T05:40:58;17.30;99.90
7784;DHT22;19359;51.402;6.778;2022-07-22T05:43:25;17.40;99.90
7784;DHT22;19359;51.402;6.778;2022-07-22T05:45:52;17.40;99.90
7784;DHT22;19359;51.402;6.778;2022-07-22T05:48:18;17.40;99.90
7784;DHT22;19359;51.402;6.778;2022-07-22T05:50:45;17.40;99.90
7784;DHT22;19359;51.402;6.778;2022-07-22T05:53:12;17.40;99.90
7784;DHT22;19359;51.402;6.778;2022-07-22T05:55:40;17.40;99.90
7784;DHT22;19359;51.402;6.778;2022-07-22T05:58:07;17.50;99.90
7784;DHT22;19359;51.402;6.778;2022-07-22T06:00:34;17.50;99.90
7784;DHT22;19359;51.402;6.778;2022-07-22T06:03:01;17.60;99.90
7784;DHT22;19359;51.402;6.778;2022-07-22T06:05:27;17.60;99.90
7784;DHT22;19359;51.402;6.778;2022-07-22T06:07:54;17.60;99.90
7784;DHT22;19359;51.402;6.778;2022-07-22T06:10:21;17.60;99.90
7784;DHT22;19359;51.402;6.778;2022-07-22T06:12:49;17.60;99.90
7784;DHT22;19359;51.402;6.778;2022-07-22T06:15:16;17.70;99.90
7784;DHT22;19359;51.402;6.778;2022-07-22T06:17:43;17.70;99.90
7784;DHT22;19359;51.402;6.778;2022-07-22T06:20:10;17.80;99.90
7784;DHT22;19359;51.402;6.778;2022-07-22T06:22:39;17.80;99.90
7784;DHT22;19359;51.402;6.778;2022-07-22T06:25:06;17.80;99.90
7784;DHT22;19359;51.402;6.778;2022-07-22T06:27:33;17.80;99.90
7784;DHT22;19359;51.402;6.778;2022-07-22T06:30:02;17.80;99.90
7784;DHT22;19359;51.402;6.778;2022-07-22T06:32:29;17.80;99.90
7784;DHT22;19359;51.402;6.778;2022-07-22T06:34:56;17.90;99.90
7784;DHT22;19359;51.402;6.778;2022-07-22T06:37:22;17.90;99.90
7784;DHT22;19359;51.402;6.778;2022-07-22T06:39:49;18.00;99.90
7784;DHT22;19359;51.402;6.778;2022-07-22T06:42:16;18.10;99.90
7784;DHT22;19359;51.402;6.778;2022-07-22T06:44:43;18.10;99.90
7784;DHT22;19359;51.402;6.778;2022-07-22T06:47:11;18.00;99.90
7784;DHT22;19359;51.402;6.778;2022-07-22T06:49:37;18.00;99.90
7784;DHT22;19359;51.402;6.778;2022-07-22T06:52:04;18.10;99.90
7784;DHT22;19359;51.402;6.778;2022-07-22T06:54:31;18.10;99.90
7784;DHT22;19359;51.402;6.778;2022-07-22T06:56:58;18.10;99.90
7784;DHT22;19359;51.402;6.778;2022-07-22T06:59:25;18.10;99.90
7784;DHT22;19359;51.402;6.778;2022-07-22T07:01:51;18.20;99.90
7784;DHT22;19359;51.402;6.778;2022-07-22T07:04:19;18.10;99.90
7784;DHT22;19359;51.402;6.778;2022-07-22T07:06:46;18.10;99.90
7784;DHT22;19359;51.402;6.778;2022-07-22T07:09:13;18.00;99.90
7784;DHT22;19359;51.402;6.778;2022-07-22T07:11:40;18.00;99.90
7784;DHT22;19359;51.402;6.778;2022-07-22T07:14:06;18.00;99.90
7784;DHT22;19359;51.402;6.778;2022-07-22T07:16:34;18.00;99.90
7784;DHT22;19359;51.402;6.778;2022-07-22T07:19:01;18.00;99.90
7784;DHT22;19359;51.402;6.778;2022-07-22T07:21:29;18.00;99.90
7784;DHT22;19359;51.402;6.778;2022-07-22T07:23:56;18.10;99.90
7784;DHT22;19359;51.402;6.778;2022-07-22T07:26:22;18.20;99.90
7784;DHT22;19359;51.402;6.778;2022-07-22T07:28:49;18.20;99.90
7784;DHT22;19359;51.402;6.778;2022-07-22T07:31:17;18.30;99.90
7784;DHT22;19359;51.402;6.778;2022-07-22T07:33:44;18.30;99.90
7784;DHT22;19359;51.402;6.778;2022-07-22T07:36:11;18.40;1.00
7784;DHT22;19359;51.402;6.778;2022-07-22T07:38:39;18.40;1.00
7784;DHT22;19359;51.402;6.778;2022-07-22T07:41:06;18.50;1.00
7784;DHT22;19359;51.402;6.778;2022-07-22T07:43:33;18.40;99.90
7784;DHT22;19359;51.402;6.778;2022-07-22T07:46:00;18.50;1.00
7784;DHT22;19359;51.402;6.778;2022-07-22T07:48:26;18.50;99.90
7784;DHT22;19359;51.402;6.778;2022-07-22T07:50:53;18.60;1.00
7784;DHT22;19359;51.402;6.778;2022-07-22T07:53:20;18.60;99.90
7784;DHT22;19359;51.402;6.778;2022-07-22T07:55:48;18.60;1.00
7784;DHT22;19359;51.402;6.778;2022-07-22T07:58:15;18.60;1.00
7784;DHT22;19359;51.402;6.778;2022-07-22T08:00:42;18.60;1.00
7784;DHT22;19359;51.402;6.778;2022-07-22T08:03:09;18.60;1.00
7784;DHT22;19359;51.402;6.778;2022-07-22T08:05:37;18.60;1.00
7784;DHT22;19359;51.402;6.778;2022-07-22T08:08:05;18.60;1.00
7784;DHT22;19359;51.402;6.778;2022-07-22T08:10:32;18.70;1.00
7784;DHT22;19359;51.402;6.778;2022-07-22T08:13:01;18.70;1.00
7784;DHT22;19359;51.402;6.778;2022-07-22T08:15:28;18.80;1.00
7784;DHT22;19359;51.402;6.778;2022-07-22T08:17:56;18.80;1.00
7784;DHT22;19359;51.402;6.778;2022-07-22T08:20:24;18.80;1.00
7784;DHT22;19359;51.402;6.778;2022-07-22T08:22:51;18.90;99.90
7784;DHT22;19359;51.402;6.778;2022-07-22T08:25:18;19.00;99.90
7784;DHT22;19359;51.402;6.778;2022-07-22T08:27:45;19.00;99.90
7784;DHT22;19359;51.402;6.778;2022-07-22T08:30:14;18.90;99.90
7784;DHT22;19359;51.402;6.778;2022-07-22T08:32:41;18.90;1.00
7784;DHT22;19359;51.402;6.778;2022-07-22T08:35:08;18.90;1.00
7784;DHT22;19359;51.402;6.778;2022-07-22T08:37:36;18.90;99.90
7784;DHT22;19359;51.402;6.778;2022-07-22T08:40:04;18.80;99.90
7784;DHT22;19359;51.402;6.778;2022-07-22T08:42:32;18.80;99.90
7784;DHT22;19359;51.402;6.778;2022-07-22T08:45:03;18.90;1.00
7784;DHT22;19359;51.402;6.778;2022-07-22T08:47:31;18.90;7.10
7784;DHT22;19359;51.402;6.778;2022-07-22T08:49:59;18.40;1.00
7784;DHT22;19359;51.402;6.778;2022-07-22T08:52:29;18.90;1.00
7784;DHT22;19359;51.402;6.778;2022-07-22T08:54:55;18.90;1.00
7784;DHT22;19359;51.402;6.778;2022-07-22T08:57:22;18.90;1.00
7784;DHT22;19359;51.402;6.778;2022-07-22T08:59:51;18.90;1.00
7784;DHT22;19359;51.402;6.778;2022-07-22T09:02:18;18.90;1.00
7784;DHT22;19359;51.402;6.778;2022-07-22T09:04:56;19.00;1.00
7784;DHT22;19359;51.402;6.778;2022-07-22T09:07:28;19.00;1.00
7784;DHT22;19359;51.402;6.778;2022-07-22T09:09:56;19.00;1.00
7784;DHT22;19359;51.402;6.778;2022-07-22T09:12:23;19.10;99.90
7784;DHT22;19359;51.402;6.778;2022-07-22T09:14:52;19.20;1.00
7784;DHT22;19359;51.402;6.778;2022-07-22T09:17:24;19.30;99.90
7784;DHT22;19359;51.402;6.778;2022-07-22T09:19:51;19.50;1.00
7784;DHT22;19359;51.402;6.778;2022-07-22T09:22:32;19.50;1.00
7784;DHT22;19359;51.402;6.778;2022-07-22T09:25:17;19.60;1.00
7784;DHT22;19359;51.402;6.778;2022-07-22T09:27:44;19.80;1.00
7784;DHT22;19359;51.402;6.778;2022-07-22T09:30:12;19.80;1.00
7784;DHT22;19359;51.402;6.778;2022-07-22T09:32:40;19.90;1.00
7784;DHT22;19359;51.402;6.778;2022-07-22T09:35:08;20.00;10.80
7784;DHT22;19359;51.402;6.778;2022-07-22T09:37:37;20.00;85.50
7784;DHT22;19359;51.402;6.778;2022-07-22T09:40:15;20.00;31.00
7784;DHT22;19359;51.402;6.778;2022-07-22T09:42:47;20.20;99.90
7784;DHT22;19359;51.402;6.778;2022-07-22T09:45:14;20.30;99.90
7784;DHT22;19359;51.402;6.778;2022-07-22T09:47:42;20.40;99.90
7784;DHT22;19359;51.402;6.778;2022-07-22T09:50:21;20.60;99.90
7784;DHT22;19359;51.402;6.778;2022-07-22T09:52:51;20.60;99.90
7784;DHT22;19359;51.402;6.778;2022-07-22T09:55:20;20.60;99.90
7784;DHT22;19359;51.402;6.778;2022-07-22T09:57:48;20.80;99.90
7784;DHT22;19359;51.402;6.778;2022-07-22T10:00:16;20.90;99.90
7784;DHT22;19359;51.402;6.778;2022-07-22T10:02:49;21.10;99.90
7784;DHT22;19359;51.402;6.778;2022-07-22T10:05:17;21.20;99.90
7784;DHT22;19359;51.402;6.778;2022-07-22T10:07:46;21.00;99.90
7784;DHT22;19359;51.402;6.778;2022-07-22T10:10:18;21.20;99.90
7784;DHT22;19359;51.402;6.778;2022-07-22T10:12:48;21.30;99.90
7784;DHT22;19359;51.402;6.778;2022-07-22T10:15:15;21.60;99.90
7784;DHT22;19359;51.402;6.778;2022-07-22T10:17:44;21.60;99.90
7784;DHT22;19359;51.402;6.778;2022-07-22T10:20:11;21.60;99.90
7784;DHT22;19359;51.402;6.778;2022-07-22T10:22:53;21.50;99.90
7784;DHT22;19359;51.402;6.778;2022-07-22T10:25:23;21.30;99.90
7784;DHT22;19359;51.402;6.778;2022-07-22T10:27:53;21.70;99.90
7784;DHT22;19359;51.402;6.778;2022-07-22T10:30:21;21.90;99.90
7784;DHT22;19359;51.402;6.778;2022-07-22T10:33:06;22.00;99.90
7784;DHT22;19359;51.402;6.778;2022-07-22T10:35:35;21.90;99.90
7784;DHT22;19359;51.402;6.778;2022-07-22T10:38:05;22.10;99.90
7784;DHT22;19359;51.402;6.778;2022-07-22T10:40:51;22.30;99.90
7784;DHT22;19359;51.402;6.778;2022-07-22T10:43:20;22.50;99.90
7784;DHT22;19359;51.402;6.778;2022-07-22T10:45:49;22.70;99.90
7784;DHT22;19359;51.402;6.778;2022-07-22T10:48:19;22.70;99.90
7784;DHT22;19359;51.402;6.778;2022-07-22T10:50:54;22.80;99.90
7784;DHT22;19359;51.402;6.778;2022-07-22T10:53:38;22.40;99.90
7784;DHT22;19359;51.402;6.778;2022-07-22T10:56:17;22.20;99.90
7784;DHT22;19359;51.402;6.778;2022-07-22T10:58:50;21.70;99.90
7784;DHT22;19359;51.402;6.778;2022-07-22T11:01:20;21.60;99.90
7784;DHT22;19359;51.402;6.778;2022-07-22T11:03:48;21.60;99.90
7784;DHT22;19359;51.402;6.778;2022-07-22T11:06:22;21.50;99.90
7784;DHT22;19359;51.402;6.778;2022-07-22T11:08:50;21.30;99.90
7784;DHT22;19359;51.402;6.778;2022-07-22T11:11:31;21.50;99.90
7784;DHT22;19359;51.402;6.778;2022-07-22T11:13:59;21.60;99.90
7784;DHT22;19359;51.402;6.778;2022-07-22T11:16:27;21.80;99.90
7784;DHT22;19359;51.402;6.778;2022-07-22T11:18:56;21.90;99.90
7784;DHT22;19359;51.402;6.778;2022-07-22T11:21:26;22.10;99.90
7784;DHT22;19359;51.402;6.778;2022-07-22T11:23:55;22.40;99.90
7784;DHT22;19359;51.402;6.778;2022-07-22T11:26:26;22.70;99.90
7784;DHT22;19359;51.402;6.778;2022-07-22T11:28:58;23.00;99.90
7784;DHT22;19359;51.402;6.778;2022-07-22T11:31:26;23.20;99.90
7784;DHT22;19359;51.402;6.778;2022-07-22T11:34:04;23.40;99.90
7784;DHT22;19359;51.402;6.778;2022-07-22T11:36:32;23.80;99.90
7784;DHT22;19359;51.402;6.778;2022-07-22T11:38:59;23.80;99.90
7784;DHT22;19359;51.402;6.778;2022-07-22T11:41:29;23.80;99.90
7784;DHT22;19359;51.402;6.778;2022-07-22T11:43:57;23.30;99.90
7784;DHT22;19359;51.402;6.778;2022-07-22T11:46:24;22.80;99.90
7784;DHT22;19359;51.402;6.778;2022-07-22T11:48:52;22.50;99.90
7784;DHT22;19359;51.402;6.778;2022-07-22T11:51:19;22.50;99.90
7784;DHT22;19359;51.402;6.778;2022-07-22T11:53:46;22.70;99.90
7784;DHT22;19359;51.402;6.778;2022-07-22T11:56:13;22.80;99.90
7784;DHT22;19359;51.402;6.778;2022-07-22T11:58:43;22.80;99.90
7784;DHT22;19359;51.402;6.778;2022-07-22T12:01:12;23.00;99.90
7784;DHT22;19359;51.402;6.778;2022-07-22T12:03:41;23.30;99.90
7784;DHT22;19359;51.402;6.778;2022-07-22T12:06:13;23.20;99.90
7784;DHT22;19359;51.402;6.778;2022-07-22T12:08:42;23.20;99.90
7784;DHT22;19359;51.402;6.778;2022-07-22T12:11:10;23.40;99.90
7784;DHT22;19359;51.402;6.778;2022-07-22T12:13:42;23.40;99.90
7784;DHT22;19359;51.402;6.778;2022-07-22T12:16:24;23.70;99.90
7784;DHT22;19359;51.402;6.778;2022-07-22T12:18:57;23.90;99.90
7784;DHT22;19359;51.402;6.778;2022-07-22T12:21:25;24.20;99.90
7784;DHT22;19359;51.402;6.778;2022-07-22T12:23:55;25.00;99.90
7784;DHT22;19359;51.402;6.778;2022-07-22T12:26:45;25.20;99.90
7784;DHT22;19359;51.402;6.778;2022-07-22T12:29:19;25.00;99.90
7784;DHT22;19359;51.402;6.778;2022-07-22T12:31:48;25.30;99.90
7784;DHT22;19359;51.402;6.778;2022-07-22T12:34:16;25.40;99.90
7784;DHT22;19359;51.402;6.778;2022-07-22T12:36:45;25.60;99.90
7784;DHT22;19359;51.402;6.778;2022-07-22T12:39:17;25.70;99.90
7784;DHT22;19359;51.402;6.778;2022-07-22T12:41:47;25.70;99.90
7784;DHT22;19359;51.402;6.778;2022-07-22T12:44:23;25.20;99.90
7784;DHT22;19359;51.402;6.778;2022-07-22T12:46:53;25.10;99.90
7784;DHT22;19359;51.402;6.778;2022-07-22T12:49:21;25.10;99.90
7784;DHT22;19359;51.402;6.778;2022-07-22T12:52:08;25.30;99.90
7784;DHT22;19359;51.402;6.778;2022-07-22T12:54:35;25.60;99.90
7784;DHT22;19359;51.402;6.778;2022-07-22T12:57:03;25.70;99.90
7784;DHT22;19359;51.402;6.778;2022-07-22T12:59:31;26.10;99.90
7784;DHT22;19359;51.402;6.778;2022-07-22T13:01:58;26.20;99.90
7784;DHT22;19359;51.402;6.778;2022-07-22T13:04:25;26.40;99.90
7784;DHT22;19359;51.402;6.778;2022-07-22T13:06:51;26.60;99.90
7784;DHT22;19359;51.402;6.778;2022-07-22T13:09:18;26.60;99.90
7784;DHT22;19359;51.402;6.778;2022-07-22T13:11:45;26.70;99.90
7784;DHT22;19359;51.402;6.778;2022-07-22T13:14:12;26.80;99.90
7784;DHT22;19359;51.402;6.778;2022-07-22T13:16:41;27.00;99.90
7784;DHT22;19359;51.402;6.778;2022-07-22T13:19:08;26.80;99.90
7784;DHT22;19359;51.402;6.778;2022-07-22T13:21:34;26.80;99.90
7784;DHT22;19359;51.402;6.778;2022-07-22T13:24:02;27.10;99.90
7784;DHT22;19359;51.402;6.778;2022-07-22T13:26:30;27.30;99.90
7784;DHT22;19359;51.402;6.778;2022-07-22T13:28:56;28.00;99.90
7784;DHT22;19359;51.402;6.778;2022-07-22T13:31:23;28.40;99.90
7784;DHT22;19359;51.402;6.778;2022-07-22T13:33:53;28.40;99.90
7784;DHT22;19359;51.402;6.778;2022-07-22T13:36:20;28.10;99.90
7784;DHT22;19359;51.402;6.778;2022-07-22T13:38:48;28.10;99.90
7784;DHT22;19359;51.402;6.778;2022-07-22T13:41:16;28.20;99.90
7784;DHT22;19359;51.402;6.778;2022-07-22T13:43:44;28.40;99.90
7784;DHT22;19359;51.402;6.778;2022-07-22T13:46:11;28.80;99.90
7784;DHT22;19359;51.402;6.778;2022-07-22T13:48:38;28.90;99.90
7784;DHT22;19359;51.402;6.778;2022-07-22T13:51:07;29.40;99.90
7784;DHT22;19359;51.402;6.778;2022-07-22T13:53:33;29.60;99.90
7784;DHT22;19359;51.402;6.778;2022-07-22T13:56:01;29.00;99.90
7784;DHT22;19359;51.402;6.778;2022-07-22T13:58:28;29.50;99.90
7784;DHT22;19359;51.402;6.778;2022-07-22T14:00:55;29.00;99.90
7784;DHT22;19359;51.402;6.778;2022-07-22T14:03:22;28.20;99.90
7784;DHT22;19359;51.402;6.778;2022-07-22T14:05:49;27.70;99.90
7784;DHT22;19359;51.402;6.778;2022-07-22T14:08:17;27.20;99.90
7784;DHT22;19359;51.402;6.778;2022-07-22T14:10:44;26.70;99.90
7784;DHT22;19359;51.402;6.778;2022-07-22T14:13:11;26.50;99.90
7784;DHT22;19359;51.402;6.778;2022-07-22T14:15:38;26.80;99.90
7784;DHT22;19359;51.402;6.778;2022-07-22T14:18:05;27.00;99.90
7784;DHT22;19359;51.402;6.778;2022-07-22T14:20:33;27.40;99.90
7784;DHT22;19359;51.402;6.778;2022-07-22T14:22:59;28.40;99.90
7784;DHT22;19359;51.402;6.778;2022-07-22T14:25:28;29.30;99.90
7784;DHT22;19359;51.402;6.778;2022-07-22T14:27:55;29.50;99.90
7784;DHT22;19359;51.402;6.778;2022-07-22T14:30:22;28.90;99.90
7784;DHT22;19359;51.402;6.778;2022-07-22T14:32:49;27.70;99.90
7784;DHT22;19359;51.402;6.778;2022-07-22T14:35:15;27.00;99.90
7784;DHT22;19359;51.402;6.778;2022-07-22T14:37:42;27.20;99.90
7784;DHT22;19359;51.402;6.778;2022-07-22T14:40:10;27.80;99.90
7784;DHT22;19359;51.402;6.778;2022-07-22T14:42:38;29.00;99.90
7784;DHT22;19359;51.402;6.778;2022-07-22T14:45:06;29.50;99.90
7784;DHT22;19359;51.402;6.778;2022-07-22T14:47:34;29.50;99.90
7784;DHT22;19359;51.402;6.778;2022-07-22T14:50:01;29.30;99.90
7784;DHT22;19359;51.402;6.778;2022-07-22T14:52:28;29.40;99.90
7784;DHT22;19359;51.402;6.778;2022-07-22T14:54:55;29.50;99.90
7784;DHT22;19359;51.402;6.778;2022-07-22T14:57:21;29.70;99.90
7784;DHT22;19359;51.402;6.778;2022-07-22T14:59:49;29.40;99.90
7784;DHT22;19359;51.402;6.778;2022-07-22T15:02:16;29.00;99.90
7784;DHT22;19359;51.402;6.778;2022-07-22T15:04:43;29.10;99.90
7784;DHT22;19359;51.402;6.778;2022-07-22T15:07:10;29.70;99.90
7784;DHT22;19359;51.402;6.778;2022-07-22T15:09:36;29.90;99.90
7784;DHT22;19359;51.402;6.778;2022-07-22T15:12:04;30.40;99.90
7784;DHT22;19359;51.402;6.778;2022-07-22T15:14:31;30.80;99.90
7784;DHT22;19359;51.402;6.778;2022-07-22T15:16:59;31.20;99.90
7784;DHT22;19359;51.402;6.778;2022-07-22T15:19:25;31.60;99.90
7784;DHT22;19359;51.402;6.778;2022-07-22T15:21:52;32.00;99.90
7784;DHT22;19359;51.402;6.778;2022-07-22T15:24:19;31.40;99.90
7784;DHT22;19359;51.402;6.778;2022-07-22T15:26:46;30.70;99.90
7784;DHT22;19359;51.402;6.778;2022-07-22T15:29:13;29.90;99.90
7784;DHT22;19359;51.402;6.778;2022-07-22T15:31:39;29.40;99.90
7784;DHT22;19359;51.402;6.778;2022-07-22T15:34:08;28.70;99.90
7784;DHT22;19359;51.402;6.778;2022-07-22T15:36:34;27.90;99.90
7784;DHT22;19359;51.402;6.778;2022-07-22T15:39:02;27.10;99.90
7784;DHT22;19359;51.402;6.778;2022-07-22T15:41:29;27.00;99.90
7784;DHT22;19359;51.402;6.778;2022-07-22T15:43:56;27.00;99.90
7784;DHT22;19359;51.402;6.778;2022-07-22T15:46:23;27.10;99.90
7784;DHT22;19359;51.402;6.778;2022-07-22T15:48:49;26.70;99.90
7784;DHT22;19359;51.402;6.778;2022-07-22T15:51:18;26.50;99.90
7784;DHT22;19359;51.402;6.778;2022-07-22T15:53:44;26.30;99.90
7784;DHT22;19359;51.402;6.778;2022-07-22T15:56:11;26.20;99.90